sensor_id;sensor_type;location;lat;lon;timestamp;P1;durP1;ratioP1;P2;durP2;ratioP2
73132;SDS011;61320;52.008;4.530;2023-04-24T00:00:16;2.14;;;2.14;;
73132;SDS011;61320;52.008;4.530;2023-04-24T00:02:42;2.25;;;2.25;;
73132;SDS011;61320;52.008;4.530;2023-04-24T00:05:12;2.08;;;2.08;;
73132;SDS011;61320;52.008;4.530;2023-04-24T00:07:40;2.20;;;2.20;;
73132;SDS011;61320;52.008;4.530;2023-04-24T00:10:06;2.69;;;2.69;;
73132;SDS011;61320;52.008;4.530;2023-04-24T00:12:32;2.37;;;2.37;;
73132;SDS011;61320;52.008;4.530;2023-04-24T00:14:58;2.27;;;2.27;;
73132;SDS011;61320;52.008;4.530;2023-04-24T00:17:23;2.75;;;2.75;;
73132;SDS011;61320;52.008;4.530;2023-04-24T00:19:49;3.05;;;3.05;;
73132;SDS011;61320;52.008;4.530;2023-04-24T00:22:26;3.04;;;3.04;;
73132;SDS011;61320;52.008;4.530;2023-04-24T00:24:53;3.40;;;3.40;;
73132;SDS011;61320;52.008;4.530;2023-04-24T00:27:19;3.46;;;3.46;;
73132;SDS011;61320;52.008;4.530;2023-04-24T00:29:45;3.61;;;3.61;;
73132;SDS011;61320;52.008;4.530;2023-04-24T00:32:10;3.38;;;3.38;;
73132;SDS011;61320;52.008;4.530;2023-04-24T00:34:36;3.56;;;3.56;;
73132;SDS011;61320;52.008;4.530;2023-04-24T00:37:01;3.05;;;3.05;;
73132;SDS011;61320;52.008;4.530;2023-04-24T00:39:27;3.30;;;3.30;;
73132;SDS011;61320;52.008;4.530;2023-04-24T00:41:52;3.36;;;3.36;;
73132;SDS011;61320;52.008;4.530;2023-04-24T00:44:18;2.88;;;2.88;;
73132;SDS011;61320;52.008;4.530;2023-04-24T00:46:44;2.39;;;2.39;;
73132;SDS011;61320;52.008;4.530;2023-04-24T00:49:11;2.31;;;2.31;;
73132;SDS011;61320;52.008;4.530;2023-04-24T00:51:37;2.43;;;2.43;;
73132;SDS011;61320;52.008;4.530;2023-04-24T00:54:02;2.23;;;2.23;;
73132;SDS011;61320;52.008;4.530;2023-04-24T00:56:28;2.40;;;2.40;;
73132;SDS011;61320;52.008;4.530;2023-04-24T00:58:53;2.41;;;2.41;;
73132;SDS011;61320;52.008;4.530;2023-04-24T01:01:19;2.43;;;2.43;;
73132;SDS011;61320;52.008;4.530;2023-04-24T01:03:46;2.55;;;2.55;;
73132;SDS011;61320;52.008;4.530;2023-04-24T01:06:15;2.49;;;2.49;;
73132;SDS011;61320;52.008;4.530;2023-04-24T01:08:40;2.47;;;2.47;;
73132;SDS011;61320;52.008;4.530;2023-04-24T01:11:07;2.06;;;2.06;;
73132;SDS011;61320;52.008;4.530;2023-04-24T01:13:33;2.07;;;2.07;;
73132;SDS011;61320;52.008;4.530;2023-04-24T01:15:59;1.88;;;1.88;;
73132;SDS011;61320;52.008;4.530;2023-04-24T01:18:26;1.61;;;1.61;;
73132;SDS011;61320;52.008;4.530;2023-04-24T01:21:02;1.62;;;1.62;;
73132;SDS011;61320;52.008;4.530;2023-04-24T01:23:29;1.30;;;1.30;;
73132;SDS011;61320;52.008;4.530;2023-04-24T01:25:55;1.09;;;1.09;;
73132;SDS011;61320;52.008;4.530;2023-04-24T01:28:21;1.09;;;1.09;;
73132;SDS011;61320;52.008;4.530;2023-04-24T01:30:47;0.92;;;0.92;;
73132;SDS011;61320;52.008;4.530;2023-04-24T01:33:13;1.20;;;1.20;;
73132;SDS011;61320;52.008;4.530;2023-04-24T01:35:39;1.38;;;1.38;;
73132;SDS011;61320;52.008;4.530;2023-04-24T01:38:05;1.26;;;1.26;;
73132;SDS011;61320;52.008;4.530;2023-04-24T01:40:30;1.25;;;1.25;;
73132;SDS011;61320;52.008;4.530;2023-04-24T01:42:57;1.26;;;1.26;;
73132;SDS011;61320;52.008;4.530;2023-04-24T01:45:22;1.21;;;1.21;;
73132;SDS011;61320;52.008;4.530;2023-04-24T01:47:48;1.35;;;1.35;;
73132;SDS011;61320;52.008;4.530;2023-04-24T01:50:15;1.39;;;1.39;;
73132;SDS011;61320;52.008;4.530;2023-04-24T01:52:41;1.36;;;1.36;;
73132;SDS011;61320;52.008;4.530;2023-04-24T01:55:07;1.59;;;1.59;;
73132;SDS011;61320;52.008;4.530;2023-04-24T01:57:33;1.66;;;1.66;;
73132;SDS011;61320;52.008;4.530;2023-04-24T01:59:58;1.81;;;1.81;;
73132;SDS011;61320;52.008;4.530;2023-04-24T02:02:24;1.75;;;1.75;;
73132;SDS011;61320;52.008;4.530;2023-04-24T02:04:52;1.88;;;1.88;;
73132;SDS011;61320;52.008;4.530;2023-04-24T02:07:18;2.11;;;2.11;;
73132;SDS011;61320;52.008;4.530;2023-04-24T02:09:44;2.02;;;2.02;;
73132;SDS011;61320;52.008;4.530;2023-04-24T02:12:10;1.86;;;1.86;;
73132;SDS011;61320;52.008;4.530;2023-04-24T02:14:35;2.03;;;2.03;;
73132;SDS011;61320;52.008;4.530;2023-04-24T02:17:00;2.06;;;2.06;;
73132;SDS011;61320;52.008;4.530;2023-04-24T02:19:26;2.51;;;2.51;;
73132;SDS011;61320;52.008;4.530;2023-04-24T02:21:52;2.32;;;2.32;;
73132;SDS011;61320;52.008;4.530;2023-04-24T02:24:17;2.54;;;2.54;;
73132;SDS011;61320;52.008;4.530;2023-04-24T02:26:43;2.63;;;2.63;;
73132;SDS011;61320;52.008;4.530;2023-04-24T02:29:08;3.05;;;3.05;;
73132;SDS011;61320;52.008;4.530;2023-04-24T02:31:34;3.25;;;3.25;;
73132;SDS011;61320;52.008;4.530;2023-04-24T02:33:59;3.10;;;3.10;;
73132;SDS011;61320;52.008;4.530;2023-04-24T02:36:24;3.31;;;3.31;;
73132;SDS011;61320;52.008;4.530;2023-04-24T02:38:50;2.97;;;2.97;;
73132;SDS011;61320;52.008;4.530;2023-04-24T02:41:15;2.88;;;2.88;;
73132;SDS011;61320;52.008;4.530;2023-04-24T02:43:41;2.61;;;2.61;;
73132;SDS011;61320;52.008;4.530;2023-04-24T02:46:06;2.30;;;2.30;;
73132;SDS011;61320;52.008;4.530;2023-04-24T02:48:32;1.83;;;1.83;;
73132;SDS011;61320;52.008;4.530;2023-04-24T02:50:57;1.40;;;1.40;;
73132;SDS011;61320;52.008;4.530;2023-04-24T02:53:23;1.28;;;1.28;;
73132;SDS011;61320;52.008;4.530;2023-04-24T02:55:48;0.99;;;0.99;;
73132;SDS011;61320;52.008;4.530;2023-04-24T02:58:14;0.99;;;0.99;;
73132;SDS011;61320;52.008;4.530;2023-04-24T03:00:40;0.80;;;0.80;;
73132;SDS011;61320;52.008;4.530;2023-04-24T03:03:05;0.68;;;0.68;;
73132;SDS011;61320;52.008;4.530;2023-04-24T03:05:31;0.84;;;0.84;;
73132;SDS011;61320;52.008;4.530;2023-04-24T03:07:57;0.81;;;0.81;;
73132;SDS011;61320;52.008;4.530;2023-04-24T03:10:22;0.71;;;0.71;;
73132;SDS011;61320;52.008;4.530;2023-04-24T03:12:48;0.84;;;0.84;;
73132;SDS011;61320;52.008;4.530;2023-04-24T03:15:15;0.87;;;0.87;;
73132;SDS011;61320;52.008;4.530;2023-04-24T03:17:40;0.99;;;0.99;;
73132;SDS011;61320;52.008;4.530;2023-04-24T03:20:06;0.87;;;0.87;;
73132;SDS011;61320;52.008;4.530;2023-04-24T03:22:33;0.87;;;0.87;;
73132;SDS011;61320;52.008;4.530;2023-04-24T03:24:59;1.12;;;1.12;;
73132;SDS011;61320;52.008;4.530;2023-04-24T03:27:25;0.98;;;0.98;;
73132;SDS011;61320;52.008;4.530;2023-04-24T03:29:50;1.19;;;1.18;;
73132;SDS011;61320;52.008;4.530;2023-04-24T03:32:23;1.34;;;1.22;;
73132;SDS011;61320;52.008;4.530;2023-04-24T03:34:49;1.38;;;1.26;;
73132;SDS011;61320;52.008;4.530;2023-04-24T03:37:15;1.26;;;1.14;;
73132;SDS011;61320;52.008;4.530;2023-04-24T03:39:42;1.02;;;0.99;;
73132;SDS011;61320;52.008;4.530;2023-04-24T03:42:08;0.96;;;0.96;;
73132;SDS011;61320;52.008;4.530;2023-04-24T03:44:33;1.09;;;1.09;;
73132;SDS011;61320;52.008;4.530;2023-04-24T03:47:00;0.93;;;0.93;;
73132;SDS011;61320;52.008;4.530;2023-04-24T03:49:25;0.99;;;0.99;;
73132;SDS011;61320;52.008;4.530;2023-04-24T03:51:51;0.86;;;0.86;;
73132;SDS011;61320;52.008;4.530;2023-04-24T03:54:17;0.79;;;0.79;;
73132;SDS011;61320;52.008;4.530;2023-04-24T03:56:46;0.93;;;0.93;;
73132;SDS011;61320;52.008;4.530;2023-04-24T03:59:11;0.94;;;0.94;;
73132;SDS011;61320;52.008;4.530;2023-04-24T04:01:37;0.87;;;0.87;;
73132;SDS011;61320;52.008;4.530;2023-04-24T04:04:03;0.84;;;0.84;;
73132;SDS011;61320;52.008;4.530;2023-04-24T04:06:29;0.90;;;0.90;;
73132;SDS011;61320;52.008;4.530;2023-04-24T04:08:56;0.83;;;0.83;;
73132;SDS011;61320;52.008;4.530;2023-04-24T04:11:21;0.93;;;0.93;;
73132;SDS011;61320;52.008;4.530;2023-04-24T04:13:47;0.92;;;0.92;;
73132;SDS011;61320;52.008;4.530;2023-04-24T04:16:13;1.14;;;1.14;;
73132;SDS011;61320;52.008;4.530;2023-04-24T04:18:39;1.25;;;1.24;;
73132;SDS011;61320;52.008;4.530;2023-04-24T04:21:04;1.30;;;1.22;;
73132;SDS011;61320;52.008;4.530;2023-04-24T04:23:30;1.25;;;1.19;;
73132;SDS011;61320;52.008;4.530;2023-04-24T04:25:57;1.32;;;1.32;;
73132;SDS011;61320;52.008;4.530;2023-04-24T04:28:22;1.37;;;1.37;;
73132;SDS011;61320;52.008;4.530;2023-04-24T04:30:49;1.31;;;1.31;;
73132;SDS011;61320;52.008;4.530;2023-04-24T04:33:19;1.64;;;1.64;;
73132;SDS011;61320;52.008;4.530;2023-04-24T04:35:45;1.54;;;1.54;;
73132;SDS011;61320;52.008;4.530;2023-04-24T04:38:14;1.70;;;1.70;;
73132;SDS011;61320;52.008;4.530;2023-04-24T04:40:40;2.07;;;2.07;;
73132;SDS011;61320;52.008;4.530;2023-04-24T04:43:06;2.80;;;2.80;;
73132;SDS011;61320;52.008;4.530;2023-04-24T04:45:31;2.80;;;2.80;;
73132;SDS011;61320;52.008;4.530;2023-04-24T04:47:58;3.24;;;3.24;;
73132;SDS011;61320;52.008;4.530;2023-04-24T04:50:26;3.33;;;3.33;;
73132;SDS011;61320;52.008;4.530;2023-04-24T04:52:52;2.93;;;2.93;;
73132;SDS011;61320;52.008;4.530;2023-04-24T04:55:17;2.95;;;2.95;;
73132;SDS011;61320;52.008;4.530;2023-04-24T04:57:45;3.52;;;3.52;;
73132;SDS011;61320;52.008;4.530;2023-04-24T05:00:11;3.42;;;3.42;;
73132;SDS011;61320;52.008;4.530;2023-04-24T05:02:37;3.53;;;3.53;;
73132;SDS011;61320;52.008;4.530;2023-04-24T05:05:06;3.83;;;3.83;;
73132;SDS011;61320;52.008;4.530;2023-04-24T05:07:32;4.79;;;4.79;;
73132;SDS011;61320;52.008;4.530;2023-04-24T05:09:58;7.87;;;7.86;;
73132;SDS011;61320;52.008;4.530;2023-04-24T05:12:23;10.38;;;10.38;;
73132;SDS011;61320;52.008;4.530;2023-04-24T05:14:49;11.30;;;11.30;;
73132;SDS011;61320;52.008;4.530;2023-04-24T05:17:15;12.23;;;12.23;;
73132;SDS011;61320;52.008;4.530;2023-04-24T05:19:42;12.80;;;12.80;;
73132;SDS011;61320;52.008;4.530;2023-04-24T05:22:08;13.24;;;13.24;;
73132;SDS011;61320;52.008;4.530;2023-04-24T05:24:34;12.80;;;12.80;;
73132;SDS011;61320;52.008;4.530;2023-04-24T05:27:01;12.88;;;12.88;;
73132;SDS011;61320;52.008;4.530;2023-04-24T05:29:27;12.39;;;12.39;;
73132;SDS011;61320;52.008;4.530;2023-04-24T05:31:53;11.92;;;11.92;;
73132;SDS011;61320;52.008;4.530;2023-04-24T05:34:19;11.52;;;11.52;;
73132;SDS011;61320;52.008;4.530;2023-04-24T05:36:44;11.79;;;11.79;;
73132;SDS011;61320;52.008;4.530;2023-04-24T05:39:10;11.82;;;11.82;;
73132;SDS011;61320;52.008;4.530;2023-04-24T05:41:36;12.35;;;12.35;;
73132;SDS011;61320;52.008;4.530;2023-04-24T05:44:01;12.58;;;12.58;;
73132;SDS011;61320;52.008;4.530;2023-04-24T05:46:26;12.42;;;12.42;;
73132;SDS011;61320;52.008;4.530;2023-04-24T05:48:52;12.15;;;12.15;;
73132;SDS011;61320;52.008;4.530;2023-04-24T05:51:17;12.23;;;12.23;;
73132;SDS011;61320;52.008;4.530;2023-04-24T05:53:43;12.19;;;12.19;;
73132;SDS011;61320;52.008;4.530;2023-04-24T05:56:08;12.31;;;12.31;;
73132;SDS011;61320;52.008;4.530;2023-04-24T05:58:34;12.02;;;12.02;;
73132;SDS011;61320;52.008;4.530;2023-04-24T06:00:59;12.14;;;12.14;;
73132;SDS011;61320;52.008;4.530;2023-04-24T06:03:26;12.12;;;12.12;;
73132;SDS011;61320;52.008;4.530;2023-04-24T06:05:52;11.76;;;11.76;;
73132;SDS011;61320;52.008;4.530;2023-04-24T06:08:18;11.36;;;11.36;;
73132;SDS011;61320;52.008;4.530;2023-04-24T06:10:44;10.70;;;10.70;;
73132;SDS011;61320;52.008;4.530;2023-04-24T06:13:10;10.05;;;10.05;;
73132;SDS011;61320;52.008;4.530;2023-04-24T06:15:36;8.92;;;8.92;;
73132;SDS011;61320;52.008;4.530;2023-04-24T06:18:02;9.54;;;9.34;;
73132;SDS011;61320;52.008;4.530;2023-04-24T06:20:27;8.88;;;8.78;;
73132;SDS011;61320;52.008;4.530;2023-04-24T06:22:53;8.42;;;8.30;;
73132;SDS011;61320;52.008;4.530;2023-04-24T06:25:19;8.42;;;8.12;;
73132;SDS011;61320;52.008;4.530;2023-04-24T06:27:44;8.30;;;7.93;;
73132;SDS011;61320;52.008;4.530;2023-04-24T06:30:10;8.78;;;8.24;;
73132;SDS011;61320;52.008;4.530;2023-04-24T06:32:36;8.26;;;7.85;;
73132;SDS011;61320;52.008;4.530;2023-04-24T06:35:01;8.53;;;8.12;;
73132;SDS011;61320;52.008;4.530;2023-04-24T06:37:27;8.37;;;8.03;;
73132;SDS011;61320;52.008;4.530;2023-04-24T06:39:54;8.33;;;7.68;;
73132;SDS011;61320;52.008;4.530;2023-04-24T06:42:19;8.09;;;7.43;;
73132;SDS011;61320;52.008;4.530;2023-04-24T06:44:47;8.68;;;7.89;;
73132;SDS011;61320;52.008;4.530;2023-04-24T06:47:12;8.44;;;7.66;;
73132;SDS011;61320;52.008;4.530;2023-04-24T06:49:41;8.04;;;7.61;;
73132;SDS011;61320;52.008;4.530;2023-04-24T06:52:06;7.90;;;7.32;;
73132;SDS011;61320;52.008;4.530;2023-04-24T06:54:33;7.66;;;7.04;;
73132;SDS011;61320;52.008;4.530;2023-04-24T06:56:59;7.46;;;6.77;;
73132;SDS011;61320;52.008;4.530;2023-04-24T06:59:26;8.13;;;7.22;;
73132;SDS011;61320;52.008;4.530;2023-04-24T07:01:52;7.78;;;6.79;;
73132;SDS011;61320;52.008;4.530;2023-04-24T07:04:18;7.97;;;6.89;;
73132;SDS011;61320;52.008;4.530;2023-04-24T07:06:44;8.73;;;7.25;;
73132;SDS011;61320;52.008;4.530;2023-04-24T07:09:11;7.80;;;6.48;;
73132;SDS011;61320;52.008;4.530;2023-04-24T07:11:38;7.62;;;6.40;;
73132;SDS011;61320;52.008;4.530;2023-04-24T07:14:05;6.09;;;5.18;;
73132;SDS011;61320;52.008;4.530;2023-04-24T07:16:32;7.41;;;6.13;;
73132;SDS011;61320;52.008;4.530;2023-04-24T07:18:57;7.47;;;6.12;;
73132;SDS011;61320;52.008;4.530;2023-04-24T07:21:23;7.76;;;6.25;;
73132;SDS011;61320;52.008;4.530;2023-04-24T07:23:48;8.24;;;6.30;;
73132;SDS011;61320;52.008;4.530;2023-04-24T07:26:14;8.49;;;6.41;;
73132;SDS011;61320;52.008;4.530;2023-04-24T07:28:40;8.63;;;6.44;;
73132;SDS011;61320;52.008;4.530;2023-04-24T07:31:06;8.01;;;6.16;;
73132;SDS011;61320;52.008;4.530;2023-04-24T07:33:32;6.69;;;5.32;;
73132;SDS011;61320;52.008;4.530;2023-04-24T07:35:58;7.75;;;6.09;;
73132;SDS011;61320;52.008;4.530;2023-04-24T07:38:24;7.62;;;5.82;;
73132;SDS011;61320;52.008;4.530;2023-04-24T07:40:51;8.37;;;6.17;;
73132;SDS011;61320;52.008;4.530;2023-04-24T07:43:17;7.79;;;5.88;;
73132;SDS011;61320;52.008;4.530;2023-04-24T07:45:44;6.90;;;5.31;;
73132;SDS011;61320;52.008;4.530;2023-04-24T07:48:10;7.13;;;5.49;;
73132;SDS011;61320;52.008;4.530;2023-04-24T07:50:36;7.21;;;5.50;;
73132;SDS011;61320;52.008;4.530;2023-04-24T07:53:01;6.73;;;5.31;;
73132;SDS011;61320;52.008;4.530;2023-04-24T07:55:27;7.10;;;5.65;;
73132;SDS011;61320;52.008;4.530;2023-04-24T07:58:01;6.72;;;5.31;;
73132;SDS011;61320;52.008;4.530;2023-04-24T08:00:27;7.46;;;5.78;;
73132;SDS011;61320;52.008;4.530;2023-04-24T08:02:52;7.35;;;5.78;;
73132;SDS011;61320;52.008;4.530;2023-04-24T08:05:18;6.78;;;5.43;;
73132;SDS011;61320;52.008;4.530;2023-04-24T08:07:53;6.43;;;5.22;;
73132;SDS011;61320;52.008;4.530;2023-04-24T08:10:20;6.48;;;5.28;;
73132;SDS011;61320;52.008;4.530;2023-04-24T08:12:46;6.36;;;5.33;;
73132;SDS011;61320;52.008;4.530;2023-04-24T08:15:12;5.83;;;4.99;;
73132;SDS011;61320;52.008;4.530;2023-04-24T08:17:37;6.08;;;5.06;;
73132;SDS011;61320;52.008;4.530;2023-04-24T08:20:03;5.81;;;4.92;;
73132;SDS011;61320;52.008;4.530;2023-04-24T08:22:30;6.03;;;5.07;;
73132;SDS011;61320;52.008;4.530;2023-04-24T08:24:56;6.18;;;5.20;;
73132;SDS011;61320;52.008;4.530;2023-04-24T08:27:25;5.59;;;4.86;;
73132;SDS011;61320;52.008;4.530;2023-04-24T08:29:52;5.05;;;4.57;;
73132;SDS011;61320;52.008;4.530;2023-04-24T08:32:18;4.21;;;3.91;;
73132;SDS011;61320;52.008;4.530;2023-04-24T08:34:43;4.24;;;3.93;;
73132;SDS011;61320;52.008;4.530;2023-04-24T08:37:09;3.95;;;3.66;;
73132;SDS011;61320;52.008;4.530;2023-04-24T08:39:35;4.09;;;3.71;;
73132;SDS011;61320;52.008;4.530;2023-04-24T08:42:01;4.63;;;4.20;;
73132;SDS011;61320;52.008;4.530;2023-04-24T08:44:33;4.22;;;3.78;;
73132;SDS011;61320;52.008;4.530;2023-04-24T08:47:03;4.57;;;4.03;;
73132;SDS011;61320;52.008;4.530;2023-04-24T08:49:30;4.12;;;3.60;;
73132;SDS011;61320;52.008;4.530;2023-04-24T08:51:56;4.70;;;4.06;;
73132;SDS011;61320;52.008;4.530;2023-04-24T08:54:22;4.58;;;4.01;;
73132;SDS011;61320;52.008;4.530;2023-04-24T08:56:48;3.73;;;3.28;;
73132;SDS011;61320;52.008;4.530;2023-04-24T08:59:14;3.45;;;3.04;;
73132;SDS011;61320;52.008;4.530;2023-04-24T09:01:40;3.58;;;3.12;;
73132;SDS011;61320;52.008;4.530;2023-04-24T09:04:08;3.17;;;2.74;;
73132;SDS011;61320;52.008;4.530;2023-04-24T09:06:35;3.58;;;3.02;;
73132;SDS011;61320;52.008;4.530;2023-04-24T09:09:01;3.80;;;3.10;;
73132;SDS011;61320;52.008;4.530;2023-04-24T09:11:29;3.40;;;2.85;;
73132;SDS011;61320;52.008;4.530;2023-04-24T09:13:56;4.22;;;3.55;;
73132;SDS011;61320;52.008;4.530;2023-04-24T09:16:22;5.20;;;4.73;;
73132;SDS011;61320;52.008;4.530;2023-04-24T09:18:51;3.19;;;2.91;;
73132;SDS011;61320;52.008;4.530;2023-04-24T09:21:17;3.39;;;3.05;;
73132;SDS011;61320;52.008;4.530;2023-04-24T09:23:46;2.53;;;2.27;;
73132;SDS011;61320;52.008;4.530;2023-04-24T09:26:11;2.95;;;2.60;;
73132;SDS011;61320;52.008;4.530;2023-04-24T09:28:39;3.25;;;2.80;;
73132;SDS011;61320;52.008;4.530;2023-04-24T09:31:12;3.40;;;2.75;;
73132;SDS011;61320;52.008;4.530;2023-04-24T09:33:42;4.97;;;3.74;;
73132;SDS011;61320;52.008;4.530;2023-04-24T09:36:19;3.95;;;2.96;;
73132;SDS011;61320;52.008;4.530;2023-04-24T09:38:55;3.67;;;2.68;;
73132;SDS011;61320;52.008;4.530;2023-04-24T09:41:23;4.03;;;2.90;;
73132;SDS011;61320;52.008;4.530;2023-04-24T09:43:48;3.50;;;2.52;;
73132;SDS011;61320;52.008;4.530;2023-04-24T09:46:14;3.14;;;2.26;;
73132;SDS011;61320;52.008;4.530;2023-04-24T09:48:40;3.90;;;2.73;;
73132;SDS011;61320;52.008;4.530;2023-04-24T09:51:05;3.66;;;2.55;;
73132;SDS011;61320;52.008;4.530;2023-04-24T09:53:36;3.97;;;2.81;;
73132;SDS011;61320;52.008;4.530;2023-04-24T09:56:02;4.60;;;3.28;;
73132;SDS011;61320;52.008;4.530;2023-04-24T09:58:34;4.14;;;2.90;;
73132;SDS011;61320;52.008;4.530;2023-04-24T10:01:01;3.61;;;2.53;;
73132;SDS011;61320;52.008;4.530;2023-04-24T10:03:29;4.55;;;3.18;;
73132;SDS011;61320;52.008;4.530;2023-04-24T10:05:58;3.93;;;2.82;;
73132;SDS011;61320;52.008;4.530;2023-04-24T10:08:24;3.67;;;2.61;;
73132;SDS011;61320;52.008;4.530;2023-04-24T10:10:51;4.10;;;2.91;;
73132;SDS011;61320;52.008;4.530;2023-04-24T10:13:17;4.09;;;2.88;;
73132;SDS011;61320;52.008;4.530;2023-04-24T10:15:43;3.94;;;2.73;;
73132;SDS011;61320;52.008;4.530;2023-04-24T10:18:09;3.94;;;2.75;;
73132;SDS011;61320;52.008;4.530;2023-04-24T10:20:36;3.21;;;2.21;;
73132;SDS011;61320;52.008;4.530;2023-04-24T10:23:03;3.48;;;2.38;;
73132;SDS011;61320;52.008;4.530;2023-04-24T10:25:30;3.19;;;2.22;;
73132;SDS011;61320;52.008;4.530;2023-04-24T10:27:58;3.01;;;2.10;;
73132;SDS011;61320;52.008;4.530;2023-04-24T10:30:26;2.05;;;1.47;;
73132;SDS011;61320;52.008;4.530;2023-04-24T10:32:53;2.97;;;2.12;;
73132;SDS011;61320;52.008;4.530;2023-04-24T10:35:19;2.56;;;1.89;;
73132;SDS011;61320;52.008;4.530;2023-04-24T10:38:03;2.38;;;1.77;;
73132;SDS011;61320;52.008;4.530;2023-04-24T10:40:37;3.26;;;2.35;;
73132;SDS011;61320;52.008;4.530;2023-04-24T10:43:06;3.65;;;2.59;;
73132;SDS011;61320;52.008;4.530;2023-04-24T10:45:35;3.64;;;2.57;;
73132;SDS011;61320;52.008;4.530;2023-04-24T10:48:02;4.01;;;2.81;;
73132;SDS011;61320;52.008;4.530;2023-04-24T10:53:27;4.69;;;3.14;;
73132;SDS011;61320;52.008;4.530;2023-04-24T10:55:58;4.27;;;2.94;;
73132;SDS011;61320;52.008;4.530;2023-04-24T10:58:25;3.98;;;2.77;;
73132;SDS011;61320;52.008;4.530;2023-04-24T11:01:05;4.57;;;3.11;;
73132;SDS011;61320;52.008;4.530;2023-04-24T11:03:33;4.61;;;3.10;;
73132;SDS011;61320;52.008;4.530;2023-04-24T11:06:04;4.14;;;2.82;;
73132;SDS011;61320;52.008;4.530;2023-04-24T11:08:32;3.29;;;2.29;;
73132;SDS011;61320;52.008;4.530;2023-04-24T11:11:06;2.45;;;1.72;;
73132;SDS011;61320;52.008;4.530;2023-04-24T11:16:20;1.99;;;1.41;;
73132;SDS011;61320;52.008;4.530;2023-04-24T11:18:52;2.05;;;1.49;;
73132;SDS011;61320;52.008;4.530;2023-04-24T11:21:25;2.01;;;1.45;;
73132;SDS011;61320;52.008;4.530;2023-04-24T11:23:58;2.23;;;1.61;;
73132;SDS011;61320;52.008;4.530;2023-04-24T11:26:24;2.83;;;2.01;;
73132;SDS011;61320;52.008;4.530;2023-04-24T11:28:55;2.87;;;2.05;;
73132;SDS011;61320;52.008;4.530;2023-04-24T11:34:08;3.21;;;2.33;;
73132;SDS011;61320;52.008;4.530;2023-04-24T11:36:35;3.81;;;2.79;;
73132;SDS011;61320;52.008;4.530;2023-04-24T11:39:02;3.00;;;2.24;;
73132;SDS011;61320;52.008;4.530;2023-04-24T11:41:28;2.75;;;2.03;;
73132;SDS011;61320;52.008;4.530;2023-04-24T11:43:54;3.51;;;2.57;;
73132;SDS011;61320;52.008;4.530;2023-04-24T11:46:21;3.81;;;2.78;;
73132;SDS011;61320;52.008;4.530;2023-04-24T11:48:47;3.99;;;2.93;;
73132;SDS011;61320;52.008;4.530;2023-04-24T11:51:13;4.15;;;3.06;;
73132;SDS011;61320;52.008;4.530;2023-04-24T11:53:39;4.61;;;3.41;;
73132;SDS011;61320;52.008;4.530;2023-04-24T11:56:05;4.21;;;3.14;;
73132;SDS011;61320;52.008;4.530;2023-04-24T11:58:37;3.70;;;2.78;;
73132;SDS011;61320;52.008;4.530;2023-04-24T12:01:11;4.86;;;3.25;;
73132;SDS011;61320;52.008;4.530;2023-04-24T12:03:37;6.12;;;4.22;;
73132;SDS011;61320;52.008;4.530;2023-04-24T12:06:09;5.39;;;3.87;;
73132;SDS011;61320;52.008;4.530;2023-04-24T12:08:36;6.15;;;4.51;;
73132;SDS011;61320;52.008;4.530;2023-04-24T12:11:03;5.74;;;4.28;;
73132;SDS011;61320;52.008;4.530;2023-04-24T12:13:32;5.55;;;4.27;;
73132;SDS011;61320;52.008;4.530;2023-04-24T12:15:58;5.66;;;4.29;;
73132;SDS011;61320;52.008;4.530;2023-04-24T12:18:24;4.75;;;3.70;;
73132;SDS011;61320;52.008;4.530;2023-04-24T12:20:50;5.36;;;4.28;;
73132;SDS011;61320;52.008;4.530;2023-04-24T12:23:16;4.76;;;3.91;;
73132;SDS011;61320;52.008;4.530;2023-04-24T12:25:42;4.38;;;3.65;;
73132;SDS011;61320;52.008;4.530;2023-04-24T12:28:09;5.07;;;4.22;;
73132;SDS011;61320;52.008;4.530;2023-04-24T12:30:40;6.16;;;4.95;;
73132;SDS011;61320;52.008;4.530;2023-04-24T12:33:17;6.33;;;5.08;;
73132;SDS011;61320;52.008;4.530;2023-04-24T12:35:44;6.41;;;5.16;;
73132;SDS011;61320;52.008;4.530;2023-04-24T12:38:11;7.08;;;5.59;;
73132;SDS011;61320;52.008;4.530;2023-04-24T12:40:39;6.39;;;5.26;;
73132;SDS011;61320;52.008;4.530;2023-04-24T12:43:16;6.41;;;5.21;;
73132;SDS011;61320;52.008;4.530;2023-04-24T12:45:43;6.70;;;5.40;;
73132;SDS011;61320;52.008;4.530;2023-04-24T12:48:10;6.75;;;5.43;;
73132;SDS011;61320;52.008;4.530;2023-04-24T12:50:35;5.57;;;4.51;;
73132;SDS011;61320;52.008;4.530;2023-04-24T12:53:01;5.61;;;4.50;;
73132;SDS011;61320;52.008;4.530;2023-04-24T12:55:27;6.44;;;5.00;;
73132;SDS011;61320;52.008;4.530;2023-04-24T12:57:52;6.77;;;5.09;;
73132;SDS011;61320;52.008;4.530;2023-04-24T13:00:20;6.65;;;4.99;;
73132;SDS011;61320;52.008;4.530;2023-04-24T13:02:46;6.73;;;5.10;;
73132;SDS011;61320;52.008;4.530;2023-04-24T13:05:11;6.64;;;5.21;;
73132;SDS011;61320;52.008;4.530;2023-04-24T13:07:39;5.82;;;4.67;;
73132;SDS011;61320;52.008;4.530;2023-04-24T13:10:05;6.13;;;4.89;;
73132;SDS011;61320;52.008;4.530;2023-04-24T13:12:31;6.96;;;5.55;;
73132;SDS011;61320;52.008;4.530;2023-04-24T13:14:57;7.90;;;6.16;;
73132;SDS011;61320;52.008;4.530;2023-04-24T13:17:23;7.18;;;5.55;;
73132;SDS011;61320;52.008;4.530;2023-04-24T13:19:49;7.88;;;6.15;;
73132;SDS011;61320;52.008;4.530;2023-04-24T13:22:19;6.73;;;5.40;;
73132;SDS011;61320;52.008;4.530;2023-04-24T13:24:46;6.45;;;5.30;;
73132;SDS011;61320;52.008;4.530;2023-04-24T13:27:14;5.70;;;4.80;;
73132;SDS011;61320;52.008;4.530;2023-04-24T13:29:43;5.10;;;4.34;;
73132;SDS011;61320;52.008;4.530;2023-04-24T13:32:09;5.37;;;4.57;;
73132;SDS011;61320;52.008;4.530;2023-04-24T13:34:35;5.08;;;4.32;;
73132;SDS011;61320;52.008;4.530;2023-04-24T13:37:02;5.23;;;4.43;;
73132;SDS011;61320;52.008;4.530;2023-04-24T13:39:31;4.84;;;4.05;;
73132;SDS011;61320;52.008;4.530;2023-04-24T13:41:57;5.07;;;4.28;;
73132;SDS011;61320;52.008;4.530;2023-04-24T13:44:23;5.45;;;4.46;;
73132;SDS011;61320;52.008;4.530;2023-04-24T13:46:51;5.50;;;4.65;;
73132;SDS011;61320;52.008;4.530;2023-04-24T13:49:19;5.07;;;4.49;;
73132;SDS011;61320;52.008;4.530;2023-04-24T13:51:46;5.21;;;4.63;;
73132;SDS011;61320;52.008;4.530;2023-04-24T13:54:12;5.17;;;4.53;;
73132;SDS011;61320;52.008;4.530;2023-04-24T13:56:38;5.09;;;4.58;;
73132;SDS011;61320;52.008;4.530;2023-04-24T13:59:05;5.01;;;4.39;;
73132;SDS011;61320;52.008;4.530;2023-04-24T14:01:31;5.25;;;4.61;;
73132;SDS011;61320;52.008;4.530;2023-04-24T14:03:57;5.07;;;4.49;;
73132;SDS011;61320;52.008;4.530;2023-04-24T14:06:23;5.58;;;4.92;;
73132;SDS011;61320;52.008;4.530;2023-04-24T14:08:49;5.36;;;4.79;;
73132;SDS011;61320;52.008;4.530;2023-04-24T14:11:15;5.76;;;5.13;;
73132;SDS011;61320;52.008;4.530;2023-04-24T14:13:42;6.82;;;6.02;;
73132;SDS011;61320;52.008;4.530;2023-04-24T14:16:08;6.25;;;5.45;;
73132;SDS011;61320;52.008;4.530;2023-04-24T14:18:33;5.40;;;4.84;;
73132;SDS011;61320;52.008;4.530;2023-04-24T14:20:59;5.78;;;5.14;;
73132;SDS011;61320;52.008;4.530;2023-04-24T14:23:26;6.34;;;5.65;;
73132;SDS011;61320;52.008;4.530;2023-04-24T14:25:52;6.02;;;5.44;;
73132;SDS011;61320;52.008;4.530;2023-04-24T14:28:18;6.03;;;5.40;;
73132;SDS011;61320;52.008;4.530;2023-04-24T14:30:45;6.47;;;5.65;;
73132;SDS011;61320;52.008;4.530;2023-04-24T14:33:11;6.23;;;5.49;;
73132;SDS011;61320;52.008;4.530;2023-04-24T14:35:38;6.41;;;5.68;;
73132;SDS011;61320;52.008;4.530;2023-04-24T14:38:07;6.81;;;5.89;;
73132;SDS011;61320;52.008;4.530;2023-04-24T14:40:33;7.14;;;6.21;;
73132;SDS011;61320;52.008;4.530;2023-04-24T14:42:58;7.37;;;6.36;;
73132;SDS011;61320;52.008;4.530;2023-04-24T14:45:24;7.17;;;6.05;;
73132;SDS011;61320;52.008;4.530;2023-04-24T14:47:51;6.60;;;5.60;;
73132;SDS011;61320;52.008;4.530;2023-04-24T14:50:16;7.03;;;6.13;;